sensor_id;sensor_type;location;lat;lon;timestamp;temperature;humidity
2100;DHT22;1055;48.854;9.302;2023-03-31T00:01:47;13.10;99.90
2100;DHT22;1055;48.854;9.302;2023-03-31T00:04:13;12.90;99.90
2100;DHT22;1055;48.854;9.302;2023-03-31T00:06:40;12.80;99.90
2100;DHT22;1055;48.854;9.302;2023-03-31T00:09:09;12.50;99.90
2100;DHT22;1055;48.854;9.302;2023-03-31T00:11:35;12.30;99.90
2100;DHT22;1055;48.854;9.302;2023-03-31T00:14:02;12.40;99.90
2100;DHT22;1055;48.854;9.302;2023-03-31T00:16:28;12.60;99.90
2100;DHT22;1055;48.854;9.302;2023-03-31T00:18:53;12.70;99.90
2100;DHT22;1055;48.854;9.302;2023-03-31T00:21:21;12.90;99.90
2100;DHT22;1055;48.854;9.302;2023-03-31T00:23:58;12.80;99.90
2100;DHT22;1055;48.854;9.302;2023-03-31T00:26:24;12.90;99.90
2100;DHT22;1055;48.854;9.302;2023-03-31T00:28:51;12.90;99.90
2100;DHT22;1055;48.854;9.302;2023-03-31T00:31:17;12.80;99.90
2100;DHT22;1055;48.854;9.302;2023-03-31T00:33:43;12.90;99.90
2100;DHT22;1055;48.854;9.302;2023-03-31T00:36:08;12.80;99.90
2100;DHT22;1055;48.854;9.302;2023-03-31T00:38:34;12.40;99.90
2100;DHT22;1055;48.854;9.302;2023-03-31T00:41:01;12.30;99.90
2100;DHT22;1055;48.854;9.302;2023-03-31T00:43:33;12.20;99.90
2100;DHT22;1055;48.854;9.302;2023-03-31T00:46:19;12.30;99.90
2100;DHT22;1055;48.854;9.302;2023-03-31T00:48:51;12.10;99.90
2100;DHT22;1055;48.854;9.302;2023-03-31T00:51:19;12.10;99.90
2100;DHT22;1055;48.854;9.302;2023-03-31T00:53:52;12.10;99.90
2100;DHT22;1055;48.854;9.302;2023-03-31T00:56:25;12.10;99.90
2100;DHT22;1055;48.854;9.302;2023-03-31T00:58:51;12.00;99.90
2100;DHT22;1055;48.854;9.302;2023-03-31T01:01:20;12.20;99.90
2100;DHT22;1055;48.854;9.302;2023-03-31T01:03:49;12.10;99.90
2100;DHT22;1055;48.854;9.302;2023-03-31T01:06:17;12.00;99.90
2100;DHT22;1055;48.854;9.302;2023-03-31T01:08:45;12.00;99.90
2100;DHT22;1055;48.854;9.302;2023-03-31T01:11:15;12.10;99.90
2100;DHT22;1055;48.854;9.302;2023-03-31T01:13:42;12.00;99.90
2100;DHT22;1055;48.854;9.302;2023-03-31T01:16:09;12.20;99.90
2100;DHT22;1055;48.854;9.302;2023-03-31T01:18:34;12.10;99.90
2100;DHT22;1055;48.854;9.302;2023-03-31T01:43:53;12.60;99.90
2100;DHT22;1055;48.854;9.302;2023-03-31T01:46:59;12.80;99.90
2100;DHT22;1055;48.854;9.302;2023-03-31T01:52:07;12.50;99.90
2100;DHT22;1055;48.854;9.302;2023-03-31T01:54:58;12.30;99.90
2100;DHT22;1055;48.854;9.302;2023-03-31T01:57:44;12.30;99.90
2100;DHT22;1055;48.854;9.302;2023-03-31T02:00:17;12.20;99.90
2100;DHT22;1055;48.854;9.302;2023-03-31T02:02:54;12.20;99.90
2100;DHT22;1055;48.854;9.302;2023-03-31T02:05:25;12.20;99.90
2100;DHT22;1055;48.854;9.302;2023-03-31T02:08:39;12.20;99.90
2100;DHT22;1055;48.854;9.302;2023-03-31T02:10:47;12.10;99.90
2100;DHT22;1055;48.854;9.302;2023-03-31T02:13:14;12.00;99.90
2100;DHT22;1055;48.854;9.302;2023-03-31T02:15:43;12.00;99.90
2100;DHT22;1055;48.854;9.302;2023-03-31T02:18:14;12.00;99.90
2100;DHT22;1055;48.854;9.302;2023-03-31T02:20:42;12.00;99.90
2100;DHT22;1055;48.854;9.302;2023-03-31T02:23:12;12.10;99.90
2100;DHT22;1055;48.854;9.302;2023-03-31T02:25:50;12.10;99.90
2100;DHT22;1055;48.854;9.302;2023-03-31T02:28:22;12.10;99.90
2100;DHT22;1055;48.854;9.302;2023-03-31T02:31:12;12.20;99.90
2100;DHT22;1055;48.854;9.302;2023-03-31T02:33:41;12.20;99.90
2100;DHT22;1055;48.854;9.302;2023-03-31T02:36:07;12.20;99.90
2100;DHT22;1055;48.854;9.302;2023-03-31T02:38:38;12.20;99.90
2100;DHT22;1055;48.854;9.302;2023-03-31T02:41:06;12.10;99.90
2100;DHT22;1055;48.854;9.302;2023-03-31T02:43:32;11.90;99.90
2100;DHT22;1055;48.854;9.302;2023-03-31T02:45:58;12.00;99.90
2100;DHT22;1055;48.854;9.302;2023-03-31T02:48:29;11.90;99.90
2100;DHT22;1055;48.854;9.302;2023-03-31T02:51:32;11.80;99.90
2100;DHT22;1055;48.854;9.302;2023-03-31T03:15:39;11.80;99.90
2100;DHT22;1055;48.854;9.302;2023-03-31T03:18:08;11.70;99.90
2100;DHT22;1055;48.854;9.302;2023-03-31T03:20:35;11.80;99.90
2100;DHT22;1055;48.854;9.302;2023-03-31T03:23:01;11.80;99.90
2100;DHT22;1055;48.854;9.302;2023-03-31T03:25:27;11.70;99.90
2100;DHT22;1055;48.854;9.302;2023-03-31T03:27:55;11.60;99.90
2100;DHT22;1055;48.854;9.302;2023-03-31T03:30:20;11.60;99.90
2100;DHT22;1055;48.854;9.302;2023-03-31T03:32:46;11.40;99.90
2100;DHT22;1055;48.854;9.302;2023-03-31T03:35:12;11.40;99.90
2100;DHT22;1055;48.854;9.302;2023-03-31T03:37:38;11.40;99.90
2100;DHT22;1055;48.854;9.302;2023-03-31T03:40:04;11.30;99.90
2100;DHT22;1055;48.854;9.302;2023-03-31T03:42:31;11.30;99.90
2100;DHT22;1055;48.854;9.302;2023-03-31T03:44:57;11.20;99.90
2100;DHT22;1055;48.854;9.302;2023-03-31T03:47:22;11.30;99.90
2100;DHT22;1055;48.854;9.302;2023-03-31T03:49:48;11.20;99.90
2100;DHT22;1055;48.854;9.302;2023-03-31T03:52:14;11.20;99.90
2100;DHT22;1055;48.854;9.302;2023-03-31T03:54:40;11.40;99.90
2100;DHT22;1055;48.854;9.302;2023-03-31T03:57:05;11.40;99.90
2100;DHT22;1055;48.854;9.302;2023-03-31T03:59:31;11.50;99.90
2100;DHT22;1055;48.854;9.302;2023-03-31T04:01:57;11.40;99.90
2100;DHT22;1055;48.854;9.302;2023-03-31T04:04:23;11.60;99.90
2100;DHT22;1055;48.854;9.302;2023-03-31T04:06:49;11.60;99.90
2100;DHT22;1055;48.854;9.302;2023-03-31T04:09:14;11.30;99.90
2100;DHT22;1055;48.854;9.302;2023-03-31T04:11:40;11.10;99.90
2100;DHT22;1055;48.854;9.302;2023-03-31T04:14:05;11.10;99.90
2100;DHT22;1055;48.854;9.302;2023-03-31T04:16:31;11.10;99.90
2100;DHT22;1055;48.854;9.302;2023-03-31T04:18:59;11.10;99.90
2100;DHT22;1055;48.854;9.302;2023-03-31T04:21:28;11.50;99.90
2100;DHT22;1055;48.854;9.302;2023-03-31T04:23:55;11.60;99.90
2100;DHT22;1055;48.854;9.302;2023-03-31T04:26:27;11.40;99.90
2100;DHT22;1055;48.854;9.302;2023-03-31T04:29:06;11.40;99.90
2100;DHT22;1055;48.854;9.302;2023-03-31T04:31:32;11.30;99.90
2100;DHT22;1055;48.854;9.302;2023-03-31T04:33:58;11.40;99.90
2100;DHT22;1055;48.854;9.302;2023-03-31T04:36:29;11.50;99.90
2100;DHT22;1055;48.854;9.302;2023-03-31T04:38:56;11.60;99.90
2100;DHT22;1055;48.854;9.302;2023-03-31T04:41:23;11.70;99.90
2100;DHT22;1055;48.854;9.302;2023-03-31T04:43:49;11.30;99.90
2100;DHT22;1055;48.854;9.302;2023-03-31T04:46:15;11.20;99.90
2100;DHT22;1055;48.854;9.302;2023-03-31T04:48:41;11.00;99.90
2100;DHT22;1055;48.854;9.302;2023-03-31T04:51:07;10.90;99.90
2100;DHT22;1055;48.854;9.302;2023-03-31T04:53:33;11.10;99.90
2100;DHT22;1055;48.854;9.302;2023-03-31T04:55:59;11.10;99.90
2100;DHT22;1055;48.854;9.302;2023-03-31T04:58:25;11.00;99.90
2100;DHT22;1055;48.854;9.302;2023-03-31T05:00:51;10.90;99.90
2100;DHT22;1055;48.854;9.302;2023-03-31T05:03:17;10.90;99.90
2100;DHT22;1055;48.854;9.302;2023-03-31T05:05:42;10.80;99.90
2100;DHT22;1055;48.854;9.302;2023-03-31T05:08:08;10.70;99.90
2100;DHT22;1055;48.854;9.302;2023-03-31T05:10:34;10.90;99.90
2100;DHT22;1055;48.854;9.302;2023-03-31T05:12:59;10.80;99.90
2100;DHT22;1055;48.854;9.302;2023-03-31T05:15:25;10.80;99.90
2100;DHT22;1055;48.854;9.302;2023-03-31T05:17:51;11.20;99.90
2100;DHT22;1055;48.854;9.302;2023-03-31T05:20:17;11.40;99.90
2100;DHT22;1055;48.854;9.302;2023-03-31T05:22:44;11.50;99.90
2100;DHT22;1055;48.854;9.302;2023-03-31T05:25:12;11.40;99.90
2100;DHT22;1055;48.854;9.302;2023-03-31T05:27:44;11.40;99.90
2100;DHT22;1055;48.854;9.302;2023-03-31T05:30:10;11.20;99.90
2100;DHT22;1055;48.854;9.302;2023-03-31T05:32:36;11.20;99.90
2100;DHT22;1055;48.854;9.302;2023-03-31T05:35:02;11.20;99.90
2100;DHT22;1055;48.854;9.302;2023-03-31T05:37:28;11.10;99.90
2100;DHT22;1055;48.854;9.302;2023-03-31T05:39:53;11.00;99.90
2100;DHT22;1055;48.854;9.302;2023-03-31T05:42:19;11.00;99.90
2100;DHT22;1055;48.854;9.302;2023-03-31T05:44:45;10.80;99.90
2100;DHT22;1055;48.854;9.302;2023-03-31T05:47:11;10.70;99.90
2100;DHT22;1055;48.854;9.302;2023-03-31T05:49:37;10.50;99.90
2100;DHT22;1055;48.854;9.302;2023-03-31T05:52:04;10.40;99.90
2100;DHT22;1055;48.854;9.302;2023-03-31T05:54:31;10.30;99.90
2100;DHT22;1055;48.854;9.302;2023-03-31T05:56:57;10.20;99.90
2100;DHT22;1055;48.854;9.302;2023-03-31T05:59:22;10.20;99.90
2100;DHT22;1055;48.854;9.302;2023-03-31T06:01:48;10.20;99.90
2100;DHT22;1055;48.854;9.302;2023-03-31T06:04:14;10.30;99.90
2100;DHT22;1055;48.854;9.302;2023-03-31T06:06:39;10.30;99.90
2100;DHT22;1055;48.854;9.302;2023-03-31T06:09:07;10.60;99.90
2100;DHT22;1055;48.854;9.302;2023-03-31T06:11:33;10.90;99.90
2100;DHT22;1055;48.854;9.302;2023-03-31T06:13:59;11.00;99.90
2100;DHT22;1055;48.854;9.302;2023-03-31T06:16:24;11.20;99.90
2100;DHT22;1055;48.854;9.302;2023-03-31T06:18:50;11.10;99.90
2100;DHT22;1055;48.854;9.302;2023-03-31T06:21:18;11.30;99.90
2100;DHT22;1055;48.854;9.302;2023-03-31T06:23:44;11.20;99.90
2100;DHT22;1055;48.854;9.302;2023-03-31T06:26:17;11.10;99.90
2100;DHT22;1055;48.854;9.302;2023-03-31T06:28:44;10.80;99.90
2100;DHT22;1055;48.854;9.302;2023-03-31T06:31:16;10.70;99.90
2100;DHT22;1055;48.854;9.302;2023-03-31T06:33:42;10.80;99.90
2100;DHT22;1055;48.854;9.302;2023-03-31T06:36:09;11.10;99.90
2100;DHT22;1055;48.854;9.302;2023-03-31T06:38:36;10.90;99.90
2100;DHT22;1055;48.854;9.302;2023-03-31T06:41:06;10.60;99.90
2100;DHT22;1055;48.854;9.302;2023-03-31T06:43:31;10.60;99.90
2100;DHT22;1055;48.854;9.302;2023-03-31T06:45:57;10.50;99.90
2100;DHT22;1055;48.854;9.302;2023-03-31T06:48:24;10.20;99.90
2100;DHT22;1055;48.854;9.302;2023-03-31T06:50:50;10.40;99.90
2100;DHT22;1055;48.854;9.302;2023-03-31T06:53:17;10.20;99.90
2100;DHT22;1055;48.854;9.302;2023-03-31T06:55:42;10.00;99.90
2100;DHT22;1055;48.854;9.302;2023-03-31T06:58:08;10.00;99.90
2100;DHT22;1055;48.854;9.302;2023-03-31T07:00:34;10.00;99.90
2100;DHT22;1055;48.854;9.302;2023-03-31T07:02:59;9.90;99.90
2100;DHT22;1055;48.854;9.302;2023-03-31T07:05:26;9.80;99.90
2100;DHT22;1055;48.854;9.302;2023-03-31T07:07:54;9.80;99.90
2100;DHT22;1055;48.854;9.302;2023-03-31T07:10:20;9.70;99.90
2100;DHT22;1055;48.854;9.302;2023-03-31T07:12:47;9.70;99.90
2100;DHT22;1055;48.854;9.302;2023-03-31T07:15:12;9.80;99.90
2100;DHT22;1055;48.854;9.302;2023-03-31T07:17:38;9.90;99.90
2100;DHT22;1055;48.854;9.302;2023-03-31T07:20:14;9.90;99.90
2100;DHT22;1055;48.854;9.302;2023-03-31T07:22:41;10.00;99.90
2100;DHT22;1055;48.854;9.302;2023-03-31T07:25:08;10.00;99.90
2100;DHT22;1055;48.854;9.302;2023-03-31T07:27:34;10.00;99.90
2100;DHT22;1055;48.854;9.302;2023-03-31T07:30:00;10.00;99.90
2100;DHT22;1055;48.854;9.302;2023-03-31T07:32:25;10.00;99.90
2100;DHT22;1055;48.854;9.302;2023-03-31T07:34:51;10.00;99.90
2100;DHT22;1055;48.854;9.302;2023-03-31T07:37:16;10.10;99.90
2100;DHT22;1055;48.854;9.302;2023-03-31T07:39:42;10.10;99.90
2100;DHT22;1055;48.854;9.302;2023-03-31T07:42:08;10.20;99.90
2100;DHT22;1055;48.854;9.302;2023-03-31T07:44:34;10.30;99.90
2100;DHT22;1055;48.854;9.302;2023-03-31T07:47:04;10.40;99.90
2100;DHT22;1055;48.854;9.302;2023-03-31T07:49:33;10.40;99.90
2100;DHT22;1055;48.854;9.302;2023-03-31T07:52:01;10.50;99.90
2100;DHT22;1055;48.854;9.302;2023-03-31T07:54:31;10.50;99.90
2100;DHT22;1055;48.854;9.302;2023-03-31T07:56:59;10.70;99.90
2100;DHT22;1055;48.854;9.302;2023-03-31T07:59:29;10.80;99.90
2100;DHT22;1055;48.854;9.302;2023-03-31T08:01:56;10.90;99.90
2100;DHT22;1055;48.854;9.302;2023-03-31T08:04:24;10.90;99.90
2100;DHT22;1055;48.854;9.302;2023-03-31T08:06:51;10.90;99.90
2100;DHT22;1055;48.854;9.302;2023-03-31T08:09:18;10.90;99.90
2100;DHT22;1055;48.854;9.302;2023-03-31T08:11:44;10.90;99.90
2100;DHT22;1055;48.854;9.302;2023-03-31T08:14:10;11.00;99.90
2100;DHT22;1055;48.854;9.302;2023-03-31T08:16:35;11.10;99.90
2100;DHT22;1055;48.854;9.302;2023-03-31T08:19:01;11.20;99.90
2100;DHT22;1055;48.854;9.302;2023-03-31T08:21:28;11.20;99.90
2100;DHT22;1055;48.854;9.302;2023-03-31T08:23:54;11.30;99.90
2100;DHT22;1055;48.854;9.302;2023-03-31T08:26:20;11.40;99.90
2100;DHT22;1055;48.854;9.302;2023-03-31T08:28:49;11.50;99.90
2100;DHT22;1055;48.854;9.302;2023-03-31T08:31:15;11.60;99.90
2100;DHT22;1055;48.854;9.302;2023-03-31T08:33:41;11.60;99.90
2100;DHT22;1055;48.854;9.302;2023-03-31T08:36:08;11.70;99.90
2100;DHT22;1055;48.854;9.302;2023-03-31T08:38:36;11.80;99.90
2100;DHT22;1055;48.854;9.302;2023-03-31T08:44:12;11.90;99.90
2100;DHT22;1055;48.854;9.302;2023-03-31T08:46:41;12.10;99.90
2100;DHT22;1055;48.854;9.302;2023-03-31T08:49:14;12.20;99.90
2100;DHT22;1055;48.854;9.302;2023-03-31T08:51:46;12.30;99.90
2100;DHT22;1055;48.854;9.302;2023-03-31T08:54:20;12.40;99.90
2100;DHT22;1055;48.854;9.302;2023-03-31T08:56:51;12.50;99.90
2100;DHT22;1055;48.854;9.302;2023-03-31T08:59:20;12.60;99.90
2100;DHT22;1055;48.854;9.302;2023-03-31T09:12:49;13.40;99.90
2100;DHT22;1055;48.854;9.302;2023-03-31T09:18:12;13.60;99.90
2100;DHT22;1055;48.854;9.302;2023-03-31T09:20:43;13.70;99.90
2100;DHT22;1055;48.854;9.302;2023-03-31T09:23:29;13.70;99.90
2100;DHT22;1055;48.854;9.302;2023-03-31T09:25:57;13.80;99.90
2100;DHT22;1055;48.854;9.302;2023-03-31T09:28:36;13.90;99.90
2100;DHT22;1055;48.854;9.302;2023-03-31T09:31:14;13.90;99.90
2100;DHT22;1055;48.854;9.302;2023-03-31T09:33:45;14.00;99.90
2100;DHT22;1055;48.854;9.302;2023-03-31T09:36:15;14.10;99.90
2100;DHT22;1055;48.854;9.302;2023-03-31T09:38:43;14.20;99.90
2100;DHT22;1055;48.854;9.302;2023-03-31T09:41:10;14.10;99.90
2100;DHT22;1055;48.854;9.302;2023-03-31T09:43:39;14.30;99.90
2100;DHT22;1055;48.854;9.302;2023-03-31T09:46:34;14.40;99.90
2100;DHT22;1055;48.854;9.302;2023-03-31T09:49:10;14.40;99.90
2100;DHT22;1055;48.854;9.302;2023-03-31T09:51:40;14.50;99.90
2100;DHT22;1055;48.854;9.302;2023-03-31T09:56:48;14.30;99.90
2100;DHT22;1055;48.854;9.302;2023-03-31T09:59:22;14.10;99.90
2100;DHT22;1055;48.854;9.302;2023-03-31T10:01:51;14.30;99.90
2100;DHT22;1055;48.854;9.302;2023-03-31T10:04:29;14.50;99.90
2100;DHT22;1055;48.854;9.302;2023-03-31T10:06:56;14.60;99.90
2100;DHT22;1055;48.854;9.302;2023-03-31T10:09:29;14.70;99.90
2100;DHT22;1055;48.854;9.302;2023-03-31T10:12:07;14.70;99.90
2100;DHT22;1055;48.854;9.302;2023-03-31T10:14:46;14.50;99.90
2100;DHT22;1055;48.854;9.302;2023-03-31T10:17:17;14.60;99.90
2100;DHT22;1055;48.854;9.302;2023-03-31T10:19:55;14.80;99.90
2100;DHT22;1055;48.854;9.302;2023-03-31T10:24:47;15.00;99.90
2100;DHT22;1055;48.854;9.302;2023-03-31T10:27:34;14.80;99.90
2100;DHT22;1055;48.854;9.302;2023-03-31T10:30:02;14.80;99.90
2100;DHT22;1055;48.854;9.302;2023-03-31T10:32:30;15.00;99.90
2100;DHT22;1055;48.854;9.302;2023-03-31T10:34:58;15.20;99.90
2100;DHT22;1055;48.854;9.302;2023-03-31T10:37:28;15.30;99.90
2100;DHT22;1055;48.854;9.302;2023-03-31T10:40:32;15.40;99.90
2100;DHT22;1055;48.854;9.302;2023-03-31T10:48:24;15.40;99.90
2100;DHT22;1055;48.854;9.302;2023-03-31T10:50:50;15.40;99.90
2100;DHT22;1055;48.854;9.302;2023-03-31T10:53:17;15.20;99.90
2100;DHT22;1055;48.854;9.302;2023-03-31T10:55:51;15.50;99.90
2100;DHT22;1055;48.854;9.302;2023-03-31T11:03:50;15.20;99.90
2100;DHT22;1055;48.854;9.302;2023-03-31T11:06:24;15.20;99.90
2100;DHT22;1055;48.854;9.302;2023-03-31T11:21:09;14.90;99.90
2100;DHT22;1055;48.854;9.302;2023-03-31T11:23:37;14.80;99.90
2100;DHT22;1055;48.854;9.302;2023-03-31T11:26:29;14.50;99.90
2100;DHT22;1055;48.854;9.302;2023-03-31T11:29:07;13.50;99.90
2100;DHT22;1055;48.854;9.302;2023-03-31T11:34:45;10.70;99.90
2100;DHT22;1055;48.854;9.302;2023-03-31T11:42:19;9.20;99.90
2100;DHT22;1055;48.854;9.302;2023-03-31T11:44:49;9.40;99.90
2100;DHT22;1055;48.854;9.302;2023-03-31T11:47:26;9.40;99.90
2100;DHT22;1055;48.854;9.302;2023-03-31T11:50:31;9.50;99.90
2100;DHT22;1055;48.854;9.302;2023-03-31T11:53:05;9.60;99.90
2100;DHT22;1055;48.854;9.302;2023-03-31T11:55:33;9.70;99.90
2100;DHT22;1055;48.854;9.302;2023-03-31T11:58:11;9.80;99.90
2100;DHT22;1055;48.854;9.302;2023-03-31T12:01:14;9.90;99.90
2100;DHT22;1055;48.854;9.302;2023-03-31T12:04:04;10.10;99.90
2100;DHT22;1055;48.854;9.302;2023-03-31T12:06:34;10.10;99.90
2100;DHT22;1055;48.854;9.302;2023-03-31T12:11:47;10.10;99.90
2100;DHT22;1055;48.854;9.302;2023-03-31T12:14:33;10.20;99.90
2100;DHT22;1055;48.854;9.302;2023-03-31T12:17:12;10.30;99.90
2100;DHT22;1055;48.854;9.302;2023-03-31T12:19:59;10.50;99.90
2100;DHT22;1055;48.854;9.302;2023-03-31T12:25:07;11.10;99.90
2100;DHT22;1055;48.854;9.302;2023-03-31T12:30:20;11.50;99.90
2100;DHT22;1055;48.854;9.302;2023-03-31T12:32:52;11.60;99.90
2100;DHT22;1055;48.854;9.302;2023-03-31T12:36:13;11.90;99.90
2100;DHT22;1055;48.854;9.302;2023-03-31T12:41:11;12.10;99.90
2100;DHT22;1055;48.854;9.302;2023-03-31T12:44:09;12.40;99.90
2100;DHT22;1055;48.854;9.302;2023-03-31T12:46:50;12.70;99.90
2100;DHT22;1055;48.854;9.302;2023-03-31T12:57:35;13.30;99.90
2100;DHT22;1055;48.854;9.302;2023-03-31T13:02:32;13.60;99.90
2100;DHT22;1055;48.854;9.302;2023-03-31T13:04:58;13.70;99.90
2100;DHT22;1055;48.854;9.302;2023-03-31T13:09:57;14.10;99.90
2100;DHT22;1055;48.854;9.302;2023-03-31T13:12:24;14.30;99.90
2100;DHT22;1055;48.854;9.302;2023-03-31T13:14:53;14.30;99.90
2100;DHT22;1055;48.854;9.302;2023-03-31T13:17:29;14.10;99.90
2100;DHT22;1055;48.854;9.302;2023-03-31T13:20:15;14.00;99.90
2100;DHT22;1055;48.854;9.302;2023-03-31T13:22:45;13.80;99.90
2100;DHT22;1055;48.854;9.302;2023-03-31T13:25:36;13.50;99.90
2100;DHT22;1055;48.854;9.302;2023-03-31T13:33:21;12.80;99.90
2100;DHT22;1055;48.854;9.302;2023-03-31T13:36:02;12.60;99.90
2100;DHT22;1055;48.854;9.302;2023-03-31T13:38:40;12.50;99.90
2100;DHT22;1055;48.854;9.302;2023-03-31T13:44:31;12.30;99.90
2100;DHT22;1055;48.854;9.302;2023-03-31T13:50:11;12.10;99.90
2100;DHT22;1055;48.854;9.302;2023-03-31T13:53:06;12.00;99.90
2100;DHT22;1055;48.854;9.302;2023-03-31T13:56:18;11.70;99.90
2100;DHT22;1055;48.854;9.302;2023-03-31T14:04:57;11.30;99.90
2100;DHT22;1055;48.854;9.302;2023-03-31T14:08:06;11.20;99.90
2100;DHT22;1055;48.854;9.302;2023-03-31T14:10:30;11.10;99.90
2100;DHT22;1055;48.854;9.302;2023-03-31T14:15:36;10.80;99.90
2100;DHT22;1055;48.854;9.302;2023-03-31T14:18:12;10.90;99.90
2100;DHT22;1055;48.854;9.302;2023-03-31T14:29:44;12.10;99.90
2100;DHT22;1055;48.854;9.302;2023-03-31T14:35:38;12.70;99.90
2100;DHT22;1055;48.854;9.302;2023-03-31T14:38:16;13.00;99.90
2100;DHT22;1055;48.854;9.302;2023-03-31T14:40:49;12.90;99.90
2100;DHT22;1055;48.854;9.302;2023-03-31T14:43:30;12.90;99.90
2100;DHT22;1055;48.854;9.302;2023-03-31T14:46:07;12.70;99.90
2100;DHT22;1055;48.854;9.302;2023-03-31T14:48:44;12.80;99.90
2100;DHT22;1055;48.854;9.302;2023-03-31T14:51:12;12.90;99.90
2100;DHT22;1055;48.854;9.302;2023-03-31T14:53:38;12.90;99.90
2100;DHT22;1055;48.854;9.302;2023-03-31T14:56:13;13.00;99.90
2100;DHT22;1055;48.854;9.302;2023-03-31T14:58:47;13.20;99.90
2100;DHT22;1055;48.854;9.302;2023-03-31T15:01:22;13.50;99.90
2100;DHT22;1055;48.854;9.302;2023-03-31T15:03:49;13.40;99.90
2100;DHT22;1055;48.854;9.302;2023-03-31T15:06:16;13.50;99.90
2100;DHT22;1055;48.854;9.302;2023-03-31T15:08:42;13.60;99.90
2100;DHT22;1055;48.854;9.302;2023-03-31T15:11:15;13.80;99.90
2100;DHT22;1055;48.854;9.302;2023-03-31T15:13:44;13.80;99.90
2100;DHT22;1055;48.854;9.302;2023-03-31T15:18:58;13.90;99.90
2100;DHT22;1055;48.854;9.302;2023-03-31T15:21:26;13.70;99.90
2100;DHT22;1055;48.854;9.302;2023-03-31T15:23:54;13.60;99.90
2100;DHT22;1055;48.854;9.302;2023-03-31T15:26:25;13.80;99.90
2100;DHT22;1055;48.854;9.302;2023-03-31T15:29:15;13.70;99.90
2100;DHT22;1055;48.854;9.302;2023-03-31T15:31:42;13.70;99.90
2100;DHT22;1055;48.854;9.302;2023-03-31T15:34:30;14.20;99.90
2100;DHT22;1055;48.854;9.302;2023-03-31T15:36:58;13.90;99.90
2100;DHT22;1055;48.854;9.302;2023-03-31T15:39:27;13.80;99.90
2100;DHT22;1055;48.854;9.302;2023-03-31T15:41:54;13.50;99.90
2100;DHT22;1055;48.854;9.302;2023-03-31T15:47:15;13.40;99.90
2100;DHT22;1055;48.854;9.302;2023-03-31T15:49:54;13.30;99.90
2100;DHT22;1055;48.854;9.302;2023-03-31T15:54:52;13.10;99.90
2100;DHT22;1055;48.854;9.302;2023-03-31T15:57:18;13.20;99.90
2100;DHT22;1055;48.854;9.302;2023-03-31T15:59:48;13.00;99.90
2100;DHT22;1055;48.854;9.302;2023-03-31T16:02:17;12.90;99.90
2100;DHT22;1055;48.854;9.302;2023-03-31T16:04:47;12.80;99.90
2100;DHT22;1055;48.854;9.302;2023-03-31T16:09:54;12.80;99.90
2100;DHT22;1055;48.854;9.302;2023-03-31T16:12:33;12.70;99.90
2100;DHT22;1055;48.854;9.302;2023-03-31T16:15:11;12.60;99.90
2100;DHT22;1055;48.854;9.302;2023-03-31T16:17:45;12.50;99.90
2100;DHT22;1055;48.854;9.302;2023-03-31T16:20:24;12.40;99.90
2100;DHT22;1055;48.854;9.302;2023-03-31T16:22:53;12.40;99.90
2100;DHT22;1055;48.854;9.302;2023-03-31T16:25:21;12.30;99.90
2100;DHT22;1055;48.854;9.302;2023-03-31T16:27:54;12.40;99.90
2100;DHT22;1055;48.854;9.302;2023-03-31T16:30:32;12.30;99.90
2100;DHT22;1055;48.854;9.302;2023-03-31T16:33:08;12.30;99.90
2100;DHT22;1055;48.854;9.302;2023-03-31T16:35:39;12.20;99.90
2100;DHT22;1055;48.854;9.302;2023-03-31T16:38:08;12.20;99.90
2100;DHT22;1055;48.854;9.302;2023-03-31T16:40:36;12.20;99.90
2100;DHT22;1055;48.854;9.302;2023-03-31T16:43:26;12.10;99.90
2100;DHT22;1055;48.854;9.302;2023-03-31T16:45:54;12.00;99.90
2100;DHT22;1055;48.854;9.302;2023-03-31T16:48:22;12.00;99.90
2100;DHT22;1055;48.854;9.302;2023-03-31T16:50:51;12.00;99.90
2100;DHT22;1055;48.854;9.302;2023-03-31T16:53:19;11.80;99.90
2100;DHT22;1055;48.854;9.302;2023-03-31T16:55:47;11.80;99.90
2100;DHT22;1055;48.854;9.302;2023-03-31T16:58:13;11.70;99.90
2100;DHT22;1055;48.854;9.302;2023-03-31T17:00:39;11.70;99.90
2100;DHT22;1055;48.854;9.302;2023-03-31T17:03:06;11.50;99.90
2100;DHT22;1055;48.854;9.302;2023-03-31T17:05:38;11.60;99.90
2100;DHT22;1055;48.854;9.302;2023-03-31T17:08:03;11.60;99.90
2100;DHT22;1055;48.854;9.302;2023-03-31T17:10:29;11.60;99.90
2100;DHT22;1055;48.854;9.302;2023-03-31T17:12:54;11.50;99.90
2100;DHT22;1055;48.854;9.302;2023-03-31T17:15:20;11.40;99.90
2100;DHT22;1055;48.854;9.302;2023-03-31T17:17:46;11.40;99.90
2100;DHT22;1055;48.854;9.302;2023-03-31T17:20:12;11.20;99.90
2100;DHT22;1055;48.854;9.302;2023-03-31T17:22:38;11.20;99.90
2100;DHT22;1055;48.854;9.302;2023-03-31T17:25:04;11.00;99.90
2100;DHT22;1055;48.854;9.302;2023-03-31T17:27:32;11.00;99.90
2100;DHT22;1055;48.854;9.302;2023-03-31T17:29:58;11.10;99.90
2100;DHT22;1055;48.854;9.302;2023-03-31T17:32:24;11.00;99.90
2100;DHT22;1055;48.854;9.302;2023-03-31T17:34:51;10.90;99.90
2100;DHT22;1055;48.854;9.302;2023-03-31T17:37:17;11.00;99.90
2100;DHT22;1055;48.854;9.302;2023-03-31T17:39:43;11.00;99.90
2100;DHT22;1055;48.854;9.302;2023-03-31T17:42:10;10.80;99.90
2100;DHT22;1055;48.854;9.302;2023-03-31T17:44:37;10.90;99.90
2100;DHT22;1055;48.854;9.302;2023-03-31T17:47:03;10.80;99.90
2100;DHT22;1055;48.854;9.302;2023-03-31T17:49:29;10.90;99.90
2100;DHT22;1055;48.854;9.302;2023-03-31T17:51:54;10.70;99.90
2100;DHT22;1055;48.854;9.302;2023-03-31T17:54:20;10.60;99.90
2100;DHT22;1055;48.854;9.302;2023-03-31T17:56:46;10.70;99.90
2100;DHT22;1055;48.854;9.302;2023-03-31T17:59:15;10.60;99.90
2100;DHT22;1055;48.854;9.302;2023-03-31T18:01:41;10.60;99.90
2100;DHT22;1055;48.854;9.302;2023-03-31T18:04:07;10.60;99.90
2100;DHT22;1055;48.854;9.302;2023-03-31T18:06:33;10.50;99.90
2100;DHT22;1055;48.854;9.302;2023-03-31T18:08:59;10.40;99.90
2100;DHT22;1055;48.854;9.302;2023-03-31T18:11:25;10.30;99.90
2100;DHT22;1055;48.854;9.302;2023-03-31T18:13:51;10.20;99.90
2100;DHT22;1055;48.854;9.302;2023-03-31T18:16:18;9.80;99.90
2100;DHT22;1055;48.854;9.302;2023-03-31T18:18:44;9.50;99.90
2100;DHT22;1055;48.854;9.302;2023-03-31T18:21:12;9.40;99.90
2100;DHT22;1055;48.854;9.302;2023-03-31T18:23:38;9.30;99.90
2100;DHT22;1055;48.854;9.302;2023-03-31T18:26:08;9.30;99.90
2100;DHT22;1055;48.854;9.302;2023-03-31T18:28:35;9.30;99.90
2100;DHT22;1055;48.854;9.302;2023-03-31T18:31:05;9.20;99.90
2100;DHT22;1055;48.854;9.302;2023-03-31T18:33:31;9.40;99.90
2100;DHT22;1055;48.854;9.302;2023-03-31T18:35:56;9.50;99.90
2100;DHT22;1055;48.854;9.302;2023-03-31T18:38:23;9.60;99.90
2100;DHT22;1055;48.854;9.302;2023-03-31T18:40:50;9.60;99.90
2100;DHT22;1055;48.854;9.302;2023-03-31T18:43:17;9.60;99.90
2100;DHT22;1055;48.854;9.302;2023-03-31T18:45:47;9.50;99.90
2100;DHT22;1055;48.854;9.302;2023-03-31T18:48:14;9.40;99.90
2100;DHT22;1055;48.854;9.302;2023-03-31T18:50:39;9.40;99.90
2100;DHT22;1055;48.854;9.302;2023-03-31T18:53:05;9.40;99.90
2100;DHT22;1055;48.854;9.302;2023-03-31T18:55:31;9.30;99.90
2100;DHT22;1055;48.854;9.302;2023-03-31T18:57:56;9.40;99.90
2100;DHT22;1055;48.854;9.302;2023-03-31T19:00:22;9.20;99.90
2100;DHT22;1055;48.854;9.302;2023-03-31T19:02:48;9.20;99.90
2100;DHT22;1055;48.854;9.302;2023-03-31T19:05:14;9.20;99.90
2100;DHT22;1055;48.854;9.302;2023-03-31T19:07:40;9.30;99.90
2100;DHT22;1055;48.854;9.302;2023-03-31T19:10:06;9.30;99.90